LNG Dream — C6VO5 — position and weather

sailwx.info

Track history (hours):
 
Tides and Currents Weather Stations Pressure Air Temp Water Temp Dewpoint Dewpoint Depression Visibility Wind Speed Wind Dir Waves Ship Positions

LNG Dream

Last reported at 2015-May-19 11:30 UTC. Time now 2015-May-30 10:32 UTC.
Position N 33°57' E 134°55'.
Warning: this ship's position is 10 days out of date.

Length 289.6 m; beam 49 m.

Type: Ship (hazmat cat A). MMSI: 309065000.

Date/timePositionNaut miles runAvg speedWind from/ knotsBaromVisibWave heightAir tempDewpointWater temp
2015-May-19 11:30N 33°57' E 134°55'1313.7
2015-May-19 10:33N 34°10' E 134°56'10 9.6
2015-May-19 09:32N 34°20' E 134°59'1313.6
2015-May-19 08:33N 34°32' E 135°07'9 9.0
2015-May-19 07:34N 34°36' E 134°58'1312.8
2015-May-19 06:33N 34°35' E 134°42'11 0.4
2015-May-18 02:11N 34°46' E 134°41'2 3.2
2015-May-18 01:28N 34°44' E 134°41'9 9.9
2015-May-18 00:33N 34°34' E 134°42'1312.8
2015-May-17 23:33N 34°37' E 134°57'9 9.1
2015-May-17 22:33N 34°34' E 135°08'9 9.3
2015-May-17 21:33N 34°25' E 135°04'1312.6
2015-May-17 20:34N 34°13' E 134°60'9 9.0
2015-May-17 19:33N 34°04' E 134°60'7 7.4
2015-May-17 18:34N 33°57' E 134°59'15712.0
2015-May-17 05:34N 31°25' E 134°16'  
Track history (hours):
 
Tides and Currents Weather Stations Pressure Air Temp Water Temp Dewpoint Dewpoint Depression Visibility Wind Speed Wind Dir Waves Ship Positions

LNG Dream

Last reported at 2015-May-19 11:30 UTC. Time now 2015-May-30 10:32 UTC.
Position N 33°57' E 134°55'.
Warning: this ship's position is 10 days out of date.

Length 289.6 m; beam 49 m.

Type: Ship (hazmat cat A). MMSI: 309065000.

Date/timePositionNaut miles runAvg speedWind from/ knotsBaromVisibWave heightAir tempDewpointWater temp
2015-May-19 11:30N 33°57' E 134°55'1313.7
2015-May-19 10:33N 34°10' E 134°56'10 9.6
2015-May-19 09:32N 34°20' E 134°59'1313.6
2015-May-19 08:33N 34°32' E 135°07'9 9.0
2015-May-19 07:34N 34°36' E 134°58'1312.8
2015-May-19 06:33N 34°35' E 134°42'11 0.4
2015-May-18 02:11N 34°46' E 134°41'2 3.2
2015-May-18 01:28N 34°44' E 134°41'9 9.9
2015-May-18 00:33N 34°34' E 134°42'1312.8
2015-May-17 23:33N 34°37' E 134°57'9 9.1
2015-May-17 22:33N 34°34' E 135°08'9 9.3
2015-May-17 21:33N 34°25' E 135°04'1312.6
2015-May-17 20:34N 34°13' E 134°60'9 9.0
2015-May-17 19:33N 34°04' E 134°60'7 7.4
2015-May-17 18:34N 33°57' E 134°59'15712.0
2015-May-17 05:34N 31°25' E 134°16'  

Dump ship's entire track history